sensor_id;sensor_type;location;lat;lon;timestamp;pressure;altitude;pressure_sealevel;temperature;humidity
6833;BME280;3454;42.654;23.378;2023-01-26T00:01:38;94926.53;;;0.62;100.00
6833;BME280;3454;42.654;23.378;2023-01-26T00:04:11;94921.28;;;0.68;100.00
6833;BME280;3454;42.654;23.378;2023-01-26T00:06:36;94947.56;;;0.58;100.00
6833;BME280;3454;42.654;23.378;2023-01-26T00:09:02;94931.06;;;0.54;100.00
6833;BME280;3454;42.654;23.378;2023-01-26T00:11:28;94918.66;;;0.51;100.00
6833;BME280;3454;42.654;23.378;2023-01-26T00:13:57;94918.66;;;0.51;100.00
6833;BME280;3454;42.654;23.378;2023-01-26T00:16:23;94916.88;;;0.54;100.00
6833;BME280;3454;42.654;23.378;2023-01-26T00:18:49;94931.47;;;0.63;100.00
6833;BME280;3454;42.654;23.378;2023-01-26T00:21:17;94910.56;;;0.46;100.00
6833;BME280;3454;42.654;23.378;2023-01-26T00:23:43;94925.31;;;0.52;100.00
6833;BME280;3454;42.654;23.378;2023-01-26T00:26:15;94919.47;;;0.51;100.00
6833;BME280;3454;42.654;23.378;2023-01-26T00:28:40;94940.78;;;0.60;100.00
6833;BME280;3454;42.654;23.378;2023-01-26T00:31:11;94936.66;;;0.59;100.00
6833;BME280;3454;42.654;23.378;2023-01-26T00:33:37;94925.13;;;0.56;100.00
6833;BME280;3454;42.654;23.378;2023-01-26T00:36:04;94924.91;;;0.61;100.00
6833;BME280;3454;42.654;23.378;2023-01-26T00:38:29;94907.59;;;0.56;100.00
6833;BME280;3454;42.654;23.378;2023-01-26T00:40:55;94916.16;;;0.51;100.00
6833;BME280;3454;42.654;23.378;2023-01-26T00:43:20;94903.16;;;0.43;100.00
6833;BME280;3454;42.654;23.378;2023-01-26T00:45:47;94899.97;;;0.39;100.00
6833;BME280;3454;42.654;23.378;2023-01-26T00:48:13;94900.66;;;0.43;100.00
6833;BME280;3454;42.654;23.378;2023-01-26T00:50:38;94914.88;;;0.42;100.00
6833;BME280;3454;42.654;23.378;2023-01-26T00:53:11;94916.81;;;0.36;100.00
6833;BME280;3454;42.654;23.378;2023-01-26T00:55:37;94941.66;;;0.39;100.00
6833;BME280;3454;42.654;23.378;2023-01-26T00:58:04;94936.00;;;0.35;100.00
6833;BME280;3454;42.654;23.378;2023-01-26T01:00:31;94901.44;;;0.25;100.00
6833;BME280;3454;42.654;23.378;2023-01-26T01:02:57;94920.31;;;0.32;100.00
6833;BME280;3454;42.654;23.378;2023-01-26T01:05:23;94929.97;;;0.19;100.00
6833;BME280;3454;42.654;23.378;2023-01-26T01:07:49;94939.75;;;0.25;100.00
6833;BME280;3454;42.654;23.378;2023-01-26T01:10:14;94919.91;;;0.21;100.00
6833;BME280;3454;42.654;23.378;2023-01-26T01:12:40;94943.38;;;0.18;100.00
6833;BME280;3454;42.654;23.378;2023-01-26T01:15:06;94930.06;;;0.18;100.00
6833;BME280;3454;42.654;23.378;2023-01-26T01:17:32;94921.41;;;0.25;100.00
6833;BME280;3454;42.654;23.378;2023-01-26T01:20:05;94933.16;;;0.23;100.00
6833;BME280;3454;42.654;23.378;2023-01-26T01:22:35;94936.31;;;0.28;100.00
6833;BME280;3454;42.654;23.378;2023-01-26T01:25:01;94942.31;;;0.24;100.00
6833;BME280;3454;42.654;23.378;2023-01-26T01:27:26;94942.41;;;0.21;100.00
6833;BME280;3454;42.654;23.378;2023-01-26T01:29:52;94940.06;;;0.18;100.00
6833;BME280;3454;42.654;23.378;2023-01-26T01:32:18;94952.47;;;0.19;100.00
6833;BME280;3454;42.654;23.378;2023-01-26T01:34:47;94943.63;;;0.12;100.00
6833;BME280;3454;42.654;23.378;2023-01-26T01:37:14;94899.56;;;0.10;100.00
6833;BME280;3454;42.654;23.378;2023-01-26T01:39:39;94963.81;;;0.28;100.00
6833;BME280;3454;42.654;23.378;2023-01-26T01:42:05;94936.63;;;0.40;100.00
6833;BME280;3454;42.654;23.378;2023-01-26T01:44:33;94955.13;;;0.36;100.00
6833;BME280;3454;42.654;23.378;2023-01-26T01:47:05;94915.00;;;0.19;100.00
6833;BME280;3454;42.654;23.378;2023-01-26T01:49:41;94954.16;;;0.39;100.00
6833;BME280;3454;42.654;23.378;2023-01-26T01:52:09;94960.22;;;0.33;100.00
6833;BME280;3454;42.654;23.378;2023-01-26T01:54:44;94955.56;;;0.26;100.00
6833;BME280;3454;42.654;23.378;2023-01-26T01:57:16;94941.88;;;0.34;100.00
6833;BME280;3454;42.654;23.378;2023-01-26T01:59:55;94929.41;;;0.33;100.00
6833;BME280;3454;42.654;23.378;2023-01-26T02:02:23;94946.47;;;0.23;100.00
6833;BME280;3454;42.654;23.378;2023-01-26T02:04:49;94894.13;;;0.20;100.00
6833;BME280;3454;42.654;23.378;2023-01-26T02:07:15;94915.81;;;0.20;100.00
6833;BME280;3454;42.654;23.378;2023-01-26T02:09:42;94902.25;;;0.25;100.00
6833;BME280;3454;42.654;23.378;2023-01-26T02:12:29;94890.50;;;0.27;100.00
6833;BME280;3454;42.654;23.378;2023-01-26T02:14:56;94774.03;;;-0.56;100.00
6833;BME280;3454;42.654;23.378;2023-01-26T02:17:22;94884.13;;;0.20;100.00
6833;BME280;3454;42.654;23.378;2023-01-26T02:27:59;94853.16;;;0.24;100.00
6833;BME280;3454;42.654;23.378;2023-01-26T02:30:25;94846.59;;;0.22;100.00
6833;BME280;3454;42.654;23.378;2023-01-26T02:32:51;94854.38;;;0.34;100.00
6833;BME280;3454;42.654;23.378;2023-01-26T02:35:17;94866.44;;;0.25;100.00
6833;BME280;3454;42.654;23.378;2023-01-26T02:37:42;94835.31;;;0.32;100.00
6833;BME280;3454;42.654;23.378;2023-01-26T02:40:15;94834.50;;;0.31;100.00
6833;BME280;3454;42.654;23.378;2023-01-26T02:42:44;94888.31;;;0.20;100.00
6833;BME280;3454;42.654;23.378;2023-01-26T02:45:12;94885.81;;;0.20;100.00
6833;BME280;3454;42.654;23.378;2023-01-26T02:47:38;94880.81;;;-0.01;100.00
6833;BME280;3454;42.654;23.378;2023-01-26T02:50:06;94856.69;;;-0.02;100.00
6833;BME280;3454;42.654;23.378;2023-01-26T02:52:31;94847.47;;;0.00;100.00
6833;BME280;3454;42.654;23.378;2023-01-26T02:54:57;94833.41;;;-0.02;100.00
6833;BME280;3454;42.654;23.378;2023-01-26T02:57:42;94847.63;;;-0.04;100.00
6833;BME280;3454;42.654;23.378;2023-01-26T03:00:10;94788.75;;;-0.10;100.00
6833;BME280;3454;42.654;23.378;2023-01-26T03:02:36;94838.03;;;0.07;100.00
6833;BME280;3454;42.654;23.378;2023-01-26T03:05:03;94838.53;;;0.15;100.00
6833;BME280;3454;42.654;23.378;2023-01-26T03:07:29;94830.09;;;0.18;100.00
6833;BME280;3454;42.654;23.378;2023-01-26T03:09:54;94846.94;;;0.13;100.00
6833;BME280;3454;42.654;23.378;2023-01-26T03:12:20;94820.97;;;0.17;100.00
6833;BME280;3454;42.654;23.378;2023-01-26T03:14:45;94846.03;;;0.15;100.00
6833;BME280;3454;42.654;23.378;2023-01-26T03:17:31;94805.91;;;0.18;100.00
6833;BME280;3454;42.654;23.378;2023-01-26T03:19:56;94791.41;;;0.26;100.00
6833;BME280;3454;42.654;23.378;2023-01-26T03:22:40;94819.44;;;0.33;100.00
6833;BME280;3454;42.654;23.378;2023-01-26T03:25:24;94783.22;;;0.23;100.00
6833;BME280;3454;42.654;23.378;2023-01-26T03:28:08;94822.22;;;0.45;100.00
6833;BME280;3454;42.654;23.378;2023-01-26T03:30:34;94840.47;;;0.47;100.00
6833;BME280;3454;42.654;23.378;2023-01-26T03:32:59;94812.91;;;0.49;100.00
6833;BME280;3454;42.654;23.378;2023-01-26T03:35:25;94829.25;;;0.37;100.00
6833;BME280;3454;42.654;23.378;2023-01-26T03:37:50;94815.28;;;0.52;100.00
6833;BME280;3454;42.654;23.378;2023-01-26T03:40:18;94812.91;;;0.49;100.00
6833;BME280;3454;42.654;23.378;2023-01-26T03:43:07;94819.75;;;0.64;100.00
6833;BME280;3454;42.654;23.378;2023-01-26T03:45:52;94831.44;;;0.63;100.00
6833;BME280;3454;42.654;23.378;2023-01-26T03:48:36;94814.38;;;0.53;100.00
6833;BME280;3454;42.654;23.378;2023-01-26T03:51:20;94766.34;;;0.46;100.00
6833;BME280;3454;42.654;23.378;2023-01-26T03:54:04;94771.34;;;0.46;100.00
6833;BME280;3454;42.654;23.378;2023-01-26T03:56:48;94780.53;;;0.46;100.00
6833;BME280;3454;42.654;23.378;2023-01-26T03:59:13;94777.88;;;0.49;100.00
6833;BME280;3454;42.654;23.378;2023-01-26T04:01:43;94744.06;;;0.42;100.00
6833;BME280;3454;42.654;23.378;2023-01-26T04:04:27;94734.44;;;0.33;100.00
6833;BME280;3454;42.654;23.378;2023-01-26T04:07:11;94725.72;;;0.23;100.00
6833;BME280;3454;42.654;23.378;2023-01-26T04:09:55;94753.16;;;0.43;100.00
6833;BME280;3454;42.654;23.378;2023-01-26T04:12:21;94733.44;;;0.37;100.00
6833;BME280;3454;42.654;23.378;2023-01-26T04:14:46;94740.63;;;0.44;100.00
6833;BME280;3454;42.654;23.378;2023-01-26T04:17:30;94753.91;;;0.45;100.00
6833;BME280;3454;42.654;23.378;2023-01-26T04:20:14;94755.06;;;0.38;100.00
6833;BME280;3454;42.654;23.378;2023-01-26T04:22:58;94711.34;;;0.28;100.00
6833;BME280;3454;42.654;23.378;2023-01-26T04:25:24;94717.91;;;0.30;100.00
6833;BME280;3454;42.654;23.378;2023-01-26T04:27:49;94689.75;;;0.08;100.00
6833;BME280;3454;42.654;23.378;2023-01-26T04:30:15;94673.53;;;0.17;100.00
6833;BME280;3454;42.654;23.378;2023-01-26T04:32:41;94683.53;;;0.17;100.00
6833;BME280;3454;42.654;23.378;2023-01-26T04:35:08;94686.25;;;0.12;100.00
6833;BME280;3454;42.654;23.378;2023-01-26T04:37:34;94711.91;;;0.16;100.00
6833;BME280;3454;42.654;23.378;2023-01-26T04:40:00;94695.69;;;0.24;100.00
6833;BME280;3454;42.654;23.378;2023-01-26T04:42:26;94709.59;;;0.30;100.00
6833;BME280;3454;42.654;23.378;2023-01-26T04:44:52;94704.13;;;0.22;100.00
6833;BME280;3454;42.654;23.378;2023-01-26T04:47:18;94729.41;;;0.34;100.00
6833;BME280;3454;42.654;23.378;2023-01-26T04:49:44;94707.69;;;0.35;100.00
6833;BME280;3454;42.654;23.378;2023-01-26T04:52:11;94706.22;;;0.31;100.00
6833;BME280;3454;42.654;23.378;2023-01-26T04:54:37;94738.50;;;0.35;100.00
6833;BME280;3454;42.654;23.378;2023-01-26T04:57:03;94758.97;;;0.43;100.00
6833;BME280;3454;42.654;23.378;2023-01-26T04:59:28;94726.75;;;0.37;100.00
6833;BME280;3454;42.654;23.378;2023-01-26T05:01:55;94732.28;;;0.44;100.00
6833;BME280;3454;42.654;23.378;2023-01-26T05:04:20;94739.44;;;0.51;100.00
6833;BME280;3454;42.654;23.378;2023-01-26T05:06:46;94746.22;;;0.49;100.00
6833;BME280;3454;42.654;23.378;2023-01-26T05:09:12;94739.13;;;0.40;100.00
6833;BME280;3454;42.654;23.378;2023-01-26T05:11:38;94748.84;;;0.46;100.00
6833;BME280;3454;42.654;23.378;2023-01-26T05:14:04;94753.22;;;0.41;100.00
6833;BME280;3454;42.654;23.378;2023-01-26T05:16:29;94738.50;;;0.54;100.00
6833;BME280;3454;42.654;23.378;2023-01-26T05:18:55;94752.22;;;0.45;100.00
6833;BME280;3454;42.654;23.378;2023-01-26T05:21:22;94762.03;;;0.50;100.00
6833;BME280;3454;42.654;23.378;2023-01-26T05:23:49;94774.81;;;0.44;100.00
6833;BME280;3454;42.654;23.378;2023-01-26T05:26:15;94752.03;;;0.50;100.00
6833;BME280;3454;42.654;23.378;2023-01-26T05:28:41;94760.00;;;0.58;100.00
6833;BME280;3454;42.654;23.378;2023-01-26T05:31:06;94750.94;;;0.55;100.00
6833;BME280;3454;42.654;23.378;2023-01-26T05:33:32;94746.47;;;0.62;100.00
6833;BME280;3454;42.654;23.378;2023-01-26T05:35:57;94767.16;;;0.65;100.00
6833;BME280;3454;42.654;23.378;2023-01-26T05:38:27;94764.06;;;0.60;100.00
6833;BME280;3454;42.654;23.378;2023-01-26T05:40:52;94739.38;;;0.53;100.00
6833;BME280;3454;42.654;23.378;2023-01-26T05:43:18;94741.19;;;0.68;100.00
6833;BME280;3454;42.654;23.378;2023-01-26T05:45:43;94772.03;;;0.68;100.00
6833;BME280;3454;42.654;23.378;2023-01-26T05:48:08;94774.09;;;0.77;100.00
6833;BME280;3454;42.654;23.378;2023-01-26T05:50:34;94768.06;;;0.81;100.00
6833;BME280;3454;42.654;23.378;2023-01-26T05:52:59;94774.03;;;0.79;100.00
6833;BME280;3454;42.654;23.378;2023-01-26T05:55:27;94784.16;;;0.95;100.00
6833;BME280;3454;42.654;23.378;2023-01-26T05:57:52;94802.97;;;0.84;100.00
6833;BME280;3454;42.654;23.378;2023-01-26T06:00:18;94776.31;;;0.83;100.00
6833;BME280;3454;42.654;23.378;2023-01-26T06:02:44;94757.41;;;0.78;100.00
6833;BME280;3454;42.654;23.378;2023-01-26T06:05:10;94809.59;;;0.85;100.00
6833;BME280;3454;42.654;23.378;2023-01-26T06:07:36;94777.06;;;0.85;100.00
6833;BME280;3454;42.654;23.378;2023-01-26T06:10:02;94740.09;;;1.09;100.00
6833;BME280;3454;42.654;23.378;2023-01-26T06:12:28;94757.59;;;1.45;100.00
6833;BME280;3454;42.654;23.378;2023-01-26T06:15:06;94860.38;;;1.95;100.00
6833;BME280;3454;42.654;23.378;2023-01-26T06:17:31;94919.38;;;2.02;100.00
6833;BME280;3454;42.654;23.378;2023-01-26T06:19:57;94900.78;;;2.23;100.00
6833;BME280;3454;42.654;23.378;2023-01-26T06:22:23;94913.03;;;2.12;100.00
6833;BME280;3454;42.654;23.378;2023-01-26T06:24:48;94868.63;;;1.97;100.00
6833;BME280;3454;42.654;23.378;2023-01-26T06:27:15;94839.50;;;1.77;100.00
6833;BME280;3454;42.654;23.378;2023-01-26T06:29:42;94820.28;;;1.60;100.00
6833;BME280;3454;42.654;23.378;2023-01-26T06:32:14;94818.78;;;1.56;100.00
6833;BME280;3454;42.654;23.378;2023-01-26T06:34:40;94808.19;;;1.51;100.00
6833;BME280;3454;42.654;23.378;2023-01-26T06:37:06;94779.75;;;1.35;100.00
6833;BME280;3454;42.654;23.378;2023-01-26T06:39:34;94802.28;;;1.35;100.00
6833;BME280;3454;42.654;23.378;2023-01-26T06:42:00;94784.88;;;1.32;100.00
6833;BME280;3454;42.654;23.378;2023-01-26T06:44:25;94785.84;;;1.30;100.00
6833;BME280;3454;42.654;23.378;2023-01-26T06:46:51;94762.19;;;1.18;100.00
6833;BME280;3454;42.654;23.378;2023-01-26T06:49:16;94750.19;;;1.08;100.00
6833;BME280;3454;42.654;23.378;2023-01-26T06:54:18;94759.94;;;0.95;100.00
6833;BME280;3454;42.654;23.378;2023-01-26T06:56:44;94755.09;;;1.09;100.00
6833;BME280;3454;42.654;23.378;2023-01-26T06:59:09;94735.06;;;0.92;100.00
6833;BME280;3454;42.654;23.378;2023-01-26T07:01:46;94752.88;;;1.03;100.00
6833;BME280;3454;42.654;23.378;2023-01-26T07:04:13;94762.59;;;0.92;100.00
6833;BME280;3454;42.654;23.378;2023-01-26T07:06:39;94736.00;;;0.90;100.00
6833;BME280;3454;42.654;23.378;2023-01-26T07:09:04;94718.72;;;0.85;100.00
6833;BME280;3454;42.654;23.378;2023-01-26T07:11:30;94723.00;;;1.00;100.00
6833;BME280;3454;42.654;23.378;2023-01-26T07:13:56;94692.16;;;1.00;100.00
6833;BME280;3454;42.654;23.378;2023-01-26T07:16:22;94707.84;;;1.03;100.00
6833;BME280;3454;42.654;23.378;2023-01-26T07:18:47;94728.88;;;0.99;100.00
6833;BME280;3454;42.654;23.378;2023-01-26T07:21:15;94728.69;;;1.04;100.00
6833;BME280;3454;42.654;23.378;2023-01-26T07:23:42;94718.31;;;1.11;100.00
6833;BME280;3454;42.654;23.378;2023-01-26T07:26:08;94713.88;;;0.99;100.00
6833;BME280;3454;42.654;23.378;2023-01-26T07:28:33;94678.91;;;0.98;100.00
6833;BME280;3454;42.654;23.378;2023-01-26T07:30:59;94721.78;;;1.09;100.00
6833;BME280;3454;42.654;23.378;2023-01-26T07:33:27;94710.75;;;1.13;100.00
6833;BME280;3454;42.654;23.378;2023-01-26T07:35:54;94691.38;;;1.16;100.00
6833;BME280;3454;42.654;23.378;2023-01-26T07:38:19;94671.72;;;1.09;100.00
6833;BME280;3454;42.654;23.378;2023-01-26T07:40:45;94653.97;;;1.13;100.00
6833;BME280;3454;42.654;23.378;2023-01-26T07:43:12;94670.69;;;1.13;100.00
6833;BME280;3454;42.654;23.378;2023-01-26T07:45:38;94672.09;;;1.18;100.00
6833;BME280;3454;42.654;23.378;2023-01-26T07:48:04;94673.34;;;1.10;100.00
6833;BME280;3454;42.654;23.378;2023-01-26T07:50:29;94696.41;;;1.33;100.00
6833;BME280;3454;42.654;23.378;2023-01-26T07:52:55;94721.44;;;1.33;100.00
6833;BME280;3454;42.654;23.378;2023-01-26T07:55:20;94705.50;;;1.34;100.00
6833;BME280;3454;42.654;23.378;2023-01-26T07:57:47;94733.75;;;1.19;100.00
6833;BME280;3454;42.654;23.378;2023-01-26T08:00:14;94722.50;;;1.28;100.00
6833;BME280;3454;42.654;23.378;2023-01-26T08:02:40;94709.19;;;1.27;100.00
6833;BME280;3454;42.654;23.378;2023-01-26T08:05:06;94702.88;;;1.37;100.00
6833;BME280;3454;42.654;23.378;2023-01-26T08:07:31;94743.88;;;1.35;100.00
6833;BME280;3454;42.654;23.378;2023-01-26T08:09:56;94705.19;;;1.23;100.00
6833;BME280;3454;42.654;23.378;2023-01-26T08:12:23;94678.91;;;1.32;100.00
6833;BME280;3454;42.654;23.378;2023-01-26T08:14:49;94723.97;;;1.32;100.00
6833;BME280;3454;42.654;23.378;2023-01-26T08:17:14;94753.66;;;1.22;100.00
6833;BME280;3454;42.654;23.378;2023-01-26T08:19:42;94722.88;;;1.20;100.00
6833;BME280;3454;42.654;23.378;2023-01-26T08:22:09;94724.56;;;1.20;100.00
6833;BME280;3454;42.654;23.378;2023-01-26T08:24:34;94740.41;;;1.20;100.00
6833;BME280;3454;42.654;23.378;2023-01-26T08:27:00;94744.19;;;1.29;100.00
6833;BME280;3454;42.654;23.378;2023-01-26T08:29:25;94755.75;;;1.31;100.00
6833;BME280;3454;42.654;23.378;2023-01-26T08:31:50;94717.00;;;1.38;100.00
6833;BME280;3454;42.654;23.378;2023-01-26T08:34:16;94758.63;;;1.41;100.00
6833;BME280;3454;42.654;23.378;2023-01-26T08:36:42;94740.78;;;1.47;100.00
6833;BME280;3454;42.654;23.378;2023-01-26T08:39:08;94766.56;;;1.49;100.00
6833;BME280;3454;42.654;23.378;2023-01-26T08:41:33;94745.72;;;1.48;100.00
6833;BME280;3454;42.654;23.378;2023-01-26T08:43:59;94724.81;;;1.32;100.00
6833;BME280;3454;42.654;23.378;2023-01-26T08:46:25;94760.16;;;1.60;100.00
6833;BME280;3454;42.654;23.378;2023-01-26T08:48:50;94797.94;;;1.56;100.00
6833;BME280;3454;42.654;23.378;2023-01-26T08:51:16;94787.31;;;1.68;100.00
6833;BME280;3454;42.654;23.378;2023-01-26T08:53:42;94797.72;;;1.60;100.00
6833;BME280;3454;42.654;23.378;2023-01-26T08:56:10;94801.63;;;1.49;100.00
6833;BME280;3454;42.654;23.378;2023-01-26T08:58:37;94781.97;;;1.41;100.00
6833;BME280;3454;42.654;23.378;2023-01-26T09:01:12;94755.97;;;1.27;100.00
6833;BME280;3454;42.654;23.378;2023-01-26T09:03:38;94750.78;;;1.30;100.00
6833;BME280;3454;42.654;23.378;2023-01-26T09:06:04;94769.56;;;1.38;100.00
6833;BME280;3454;42.654;23.378;2023-01-26T09:08:30;94750.00;;;1.29;100.00
6833;BME280;3454;42.654;23.378;2023-01-26T09:10:56;94747.25;;;1.34;100.00
6833;BME280;3454;42.654;23.378;2023-01-26T09:13:21;94746.97;;;1.40;100.00
6833;BME280;3454;42.654;23.378;2023-01-26T09:15:47;94734.09;;;1.47;100.00
6833;BME280;3454;42.654;23.378;2023-01-26T09:18:13;94725.09;;;1.60;100.00
6833;BME280;3454;42.654;23.378;2023-01-26T09:20:39;94790.50;;;1.54;100.00
6833;BME280;3454;42.654;23.378;2023-01-26T09:23:23;94748.22;;;1.65;100.00
6833;BME280;3454;42.654;23.378;2023-01-26T09:25:52;94731.00;;;1.59;100.00
6833;BME280;3454;42.654;23.378;2023-01-26T09:28:18;94773.47;;;1.78;100.00
6833;BME280;3454;42.654;23.378;2023-01-26T09:30:43;94780.41;;;1.73;100.00
6833;BME280;3454;42.654;23.378;2023-01-26T09:33:08;94761.84;;;1.77;100.00
6833;BME280;3454;42.654;23.378;2023-01-26T09:35:34;94746.88;;;1.76;100.00
6833;BME280;3454;42.654;23.378;2023-01-26T09:37:59;94750.44;;;1.72;100.00
6833;BME280;3454;42.654;23.378;2023-01-26T09:43:15;94732.13;;;1.87;100.00
6833;BME280;3454;42.654;23.378;2023-01-26T09:45:52;94781.81;;;1.96;100.00
6833;BME280;3454;42.654;23.378;2023-01-26T09:49:04;94754.53;;;1.90;100.00
6833;BME280;3454;42.654;23.378;2023-01-26T09:51:36;94720.81;;;1.80;100.00
6833;BME280;3454;42.654;23.378;2023-01-26T09:54:30;94720.00;;;1.95;100.00
6833;BME280;3454;42.654;23.378;2023-01-26T09:57:43;94692.75;;;1.89;100.00
6833;BME280;3454;42.654;23.378;2023-01-26T09:59:53;94693.81;;;1.85;100.00
6833;BME280;3454;42.654;23.378;2023-01-26T10:05:03;94701.28;;;2.02;100.00
6833;BME280;3454;42.654;23.378;2023-01-26T10:07:30;94730.88;;;2.11;100.00
6833;BME280;3454;42.654;23.378;2023-01-26T10:09:56;94698.63;;;2.20;100.00
6833;BME280;3454;42.654;23.378;2023-01-26T10:12:26;94749.59;;;2.21;100.00
6833;BME280;3454;42.654;23.378;2023-01-26T10:17:39;94745.78;;;2.14;100.00
6833;BME280;3454;42.654;23.378;2023-01-26T10:20:16;94627.69;;;1.72;100.00
6833;BME280;3454;42.654;23.378;2023-01-26T10:22:47;94695.34;;;2.20;100.00
6833;BME280;3454;42.654;23.378;2023-01-26T10:25:21;94693.88;;;2.16;100.00
6833;BME280;3454;42.654;23.378;2023-01-26T10:27:52;94671.13;;;2.34;100.00
6833;BME280;3454;42.654;23.378;2023-01-26T10:30:18;94708.44;;;2.40;100.00
6833;BME280;3454;42.654;23.378;2023-01-26T10:32:46;94645.41;;;2.31;100.00
6833;BME280;3454;42.654;23.378;2023-01-26T10:35:24;94692.91;;;2.34;100.00
6833;BME280;3454;42.654;23.378;2023-01-26T10:37:50;94687.81;;;2.35;100.00
6833;BME280;3454;42.654;23.378;2023-01-26T10:40:17;94672.25;;;2.29;100.00
6833;BME280;3454;42.654;23.378;2023-01-26T10:42:54;94651.66;;;2.24;100.00
6833;BME280;3454;42.654;23.378;2023-01-26T10:45:31;94669.53;;;2.33;100.00
6833;BME280;3454;42.654;23.378;2023-01-26T10:48:20;94666.94;;;2.35;100.00
6833;BME280;3454;42.654;23.378;2023-01-26T10:50:49;94637.00;;;2.32;100.00
6833;BME280;3454;42.654;23.378;2023-01-26T10:53:17;94647.84;;;2.32;100.00
6833;BME280;3454;42.654;23.378;2023-01-26T10:56:05;94595.25;;;2.31;100.00
6833;BME280;3454;42.654;23.378;2023-01-26T11:01:07;94609.66;;;2.59;100.00
6833;BME280;3454;42.654;23.378;2023-01-26T11:03:37;94615.69;;;2.54;100.00
6833;BME280;3454;42.654;23.378;2023-01-26T11:08:34;94617.03;;;2.46;100.00
6833;BME280;3454;42.654;23.378;2023-01-26T11:11:00;94646.28;;;2.61;100.00
6833;BME280;3454;42.654;23.378;2023-01-26T11:13:27;94636.75;;;2.52;100.00
6833;BME280;3454;42.654;23.378;2023-01-26T11:16:13;94596.09;;;2.61;100.00
6833;BME280;3454;42.654;23.378;2023-01-26T11:21:19;94581.03;;;2.61;100.00
6833;BME280;3454;42.654;23.378;2023-01-26T11:37:47;94520.84;;;2.61;100.00
6833;BME280;3454;42.654;23.378;2023-01-26T11:54:18;94506.66;;;2.46;100.00
6833;BME280;3454;42.654;23.378;2023-01-26T11:59:40;94498.19;;;2.33;100.00
6833;BME280;3454;42.654;23.378;2023-01-26T12:02:37;94474.28;;;2.27;100.00
6833;BME280;3454;42.654;23.378;2023-01-26T12:05:22;94441.72;;;2.12;100.00
6833;BME280;3454;42.654;23.378;2023-01-26T12:07:59;94440.50;;;2.33;100.00
6833;BME280;3454;42.654;23.378;2023-01-26T12:10:35;94470.22;;;2.25;100.00
6833;BME280;3454;42.654;23.378;2023-01-26T12:13:22;94451.56;;;2.15;100.00
6833;BME280;3454;42.654;23.378;2023-01-26T12:16:00;94429.97;;;2.12;100.00
6833;BME280;3454;42.654;23.378;2023-01-26T12:18:35;94392.31;;;2.14;100.00
6833;BME280;3454;42.654;23.378;2023-01-26T12:21:09;94417.38;;;2.14;100.00
6833;BME280;3454;42.654;23.378;2023-01-26T12:26:13;94386.03;;;2.21;100.00
6833;BME280;3454;42.654;23.378;2023-01-26T12:31:44;94387.31;;;2.14;100.00
6833;BME280;3454;42.654;23.378;2023-01-26T12:34:13;94335.16;;;2.05;100.00
6833;BME280;3454;42.654;23.378;2023-01-26T12:39:47;94327.75;;;2.17;100.00
6833;BME280;3454;42.654;23.378;2023-01-26T12:42:21;94354.88;;;2.25;100.00
6833;BME280;3454;42.654;23.378;2023-01-26T12:44:54;94315.22;;;2.17;100.00
6833;BME280;3454;42.654;23.378;2023-01-26T12:52:45;94323.72;;;2.15;100.00
6833;BME280;3454;42.654;23.378;2023-01-26T12:55:43;94318.53;;;2.18;100.00
6833;BME280;3454;42.654;23.378;2023-01-26T13:00:37;94313.19;;;2.24;100.00
6833;BME280;3454;42.654;23.378;2023-01-26T13:03:24;94275.38;;;1.99;100.00
6833;BME280;3454;42.654;23.378;2023-01-26T13:11:05;94232.06;;;1.97;100.00
6833;BME280;3454;42.654;23.378;2023-01-26T13:13:33;94246.13;;;1.99;100.00
6833;BME280;3454;42.654;23.378;2023-01-26T13:21:42;94239.94;;;2.05;100.00
6833;BME280;3454;42.654;23.378;2023-01-26T13:26:47;94235.53;;;2.08;100.00
6833;BME280;3454;42.654;23.378;2023-01-26T13:34:38;94222.56;;;2.02;100.00
6833;BME280;3454;42.654;23.378;2023-01-26T13:37:20;94189.72;;;1.92;100.00
6833;BME280;3454;42.654;23.378;2023-01-26T13:39:54;94191.78;;;1.86;100.00
6833;BME280;3454;42.654;23.378;2023-01-26T13:42:37;94177.38;;;1.75;100.00
6833;BME280;3454;42.654;23.378;2023-01-26T13:47:55;94169.69;;;1.78;100.00
6833;BME280;3454;42.654;23.378;2023-01-26T13:50:28;94199.13;;;1.89;100.00
6833;BME280;3454;42.654;23.378;2023-01-26T13:52:53;94176.06;;;1.69;100.00
6833;BME280;3454;42.654;23.378;2023-01-26T13:55:30;94195.03;;;1.88;100.00
6833;BME280;3454;42.654;23.378;2023-01-26T13:58:13;94195.19;;;1.85;100.00
6833;BME280;3454;42.654;23.378;2023-01-26T14:00:38;94192.69;;;1.85;100.00
6833;BME280;3454;42.654;23.378;2023-01-26T14:03:04;94188.28;;;1.88;100.00
6833;BME280;3454;42.654;23.378;2023-01-26T14:05:30;94181.94;;;1.97;100.00
6833;BME280;3454;42.654;23.378;2023-01-26T14:07:57;94194.66;;;1.94;100.00
6833;BME280;3454;42.654;23.378;2023-01-26T14:10:24;94192.78;;;1.97;100.00
6833;BME280;3454;42.654;23.378;2023-01-26T14:12:52;94166.91;;;1.97;100.00
6833;BME280;3454;42.654;23.378;2023-01-26T14:15:27;94119.88;;;1.74;100.00
6833;BME280;3454;42.654;23.378;2023-01-26T14:17:57;94222.09;;;2.23;100.00
6833;BME280;3454;42.654;23.378;2023-01-26T14:23:15;94244.22;;;2.31;100.00
6833;BME280;3454;42.654;23.378;2023-01-26T14:26:33;94239.63;;;2.37;100.00
6833;BME280;3454;42.654;23.378;2023-01-26T14:28:36;94234.63;;;2.37;100.00
6833;BME280;3454;42.654;23.378;2023-01-26T14:31:22;94251.81;;;2.43;100.00
6833;BME280;3454;42.654;23.378;2023-01-26T14:33:49;94232.75;;;2.27;100.00
6833;BME280;3454;42.654;23.378;2023-01-26T14:36:19;94254.41;;;2.42;100.00
6833;BME280;3454;42.654;23.378;2023-01-26T14:38:47;94254.22;;;2.45;100.00
6833;BME280;3454;42.654;23.378;2023-01-26T14:43:41;94242.41;;;2.47;100.00
6833;BME280;3454;42.654;23.378;2023-01-26T14:46:17;94231.56;;;2.46;100.00
6833;BME280;3454;42.654;23.378;2023-01-26T14:51:21;94243.78;;;2.65;100.00
6833;BME280;3454;42.654;23.378;2023-01-26T14:53:55;94239.81;;;2.75;100.00
6833;BME280;3454;42.654;23.378;2023-01-26T14:56:34;94263.47;;;2.85;100.00
6833;BME280;3454;42.654;23.378;2023-01-26T14:59:01;94273.09;;;2.79;100.00
6833;BME280;3454;42.654;23.378;2023-01-26T15:01:28;94240.03;;;2.72;100.00
6833;BME280;3454;42.654;23.378;2023-01-26T15:04:20;94280.75;;;2.90;100.00
6833;BME280;3454;42.654;23.378;2023-01-26T15:06:47;94274.19;;;2.87;100.00